sensor_id;sensor_type;location;lat;lon;timestamp;temperature;humidity
53294;DHT22;39181;53.440;5.644;2023-04-09T00:01:21;7.80;99.90
53294;DHT22;39181;53.440;5.644;2023-04-09T00:03:46;7.80;99.90
53294;DHT22;39181;53.440;5.644;2023-04-09T00:06:12;7.80;99.90
53294;DHT22;39181;53.440;5.644;2023-04-09T00:08:37;7.80;99.90
53294;DHT22;39181;53.440;5.644;2023-04-09T00:11:03;8.50;99.90
53294;DHT22;39181;53.440;5.644;2023-04-09T00:13:29;7.80;99.90
53294;DHT22;39181;53.440;5.644;2023-04-09T00:15:54;7.80;99.90
53294;DHT22;39181;53.440;5.644;2023-04-09T00:18:20;7.80;99.90
53294;DHT22;39181;53.440;5.644;2023-04-09T00:20:45;7.80;99.90
53294;DHT22;39181;53.440;5.644;2023-04-09T00:23:11;7.90;99.90
53294;DHT22;39181;53.440;5.644;2023-04-09T00:25:36;7.90;99.90
53294;DHT22;39181;53.440;5.644;2023-04-09T00:28:02;8.00;99.90
53294;DHT22;39181;53.440;5.644;2023-04-09T00:30:28;7.90;99.90
53294;DHT22;39181;53.440;5.644;2023-04-09T00:32:54;8.00;99.90
53294;DHT22;39181;53.440;5.644;2023-04-09T00:35:20;8.00;99.90
53294;DHT22;39181;53.440;5.644;2023-04-09T00:37:45;8.00;99.90
53294;DHT22;39181;53.440;5.644;2023-04-09T00:40:11;8.00;99.90
53294;DHT22;39181;53.440;5.644;2023-04-09T00:42:37;8.10;99.90
53294;DHT22;39181;53.440;5.644;2023-04-09T00:45:03;8.10;99.90
53294;DHT22;39181;53.440;5.644;2023-04-09T00:47:33;8.20;99.90
53294;DHT22;39181;53.440;5.644;2023-04-09T00:50:00;8.10;99.90
53294;DHT22;39181;53.440;5.644;2023-04-09T00:52:26;8.20;99.90
53294;DHT22;39181;53.440;5.644;2023-04-09T00:54:52;8.20;99.90
53294;DHT22;39181;53.440;5.644;2023-04-09T00:57:18;8.20;99.90
53294;DHT22;39181;53.440;5.644;2023-04-09T00:59:44;8.20;99.90
53294;DHT22;39181;53.440;5.644;2023-04-09T01:02:10;8.10;99.90
53294;DHT22;39181;53.440;5.644;2023-04-09T01:04:37;8.20;99.90
53294;DHT22;39181;53.440;5.644;2023-04-09T01:07:21;8.20;99.90
53294;DHT22;39181;53.440;5.644;2023-04-09T01:10:08;8.20;99.90
53294;DHT22;39181;53.440;5.644;2023-04-09T01:12:47;8.20;99.90
53294;DHT22;39181;53.440;5.644;2023-04-09T01:15:27;8.20;99.90
53294;DHT22;39181;53.440;5.644;2023-04-09T01:18:22;8.20;99.90
53294;DHT22;39181;53.440;5.644;2023-04-09T01:21:05;8.10;99.90
53294;DHT22;39181;53.440;5.644;2023-04-09T01:26:44;8.20;99.90
53294;DHT22;39181;53.440;5.644;2023-04-09T01:29:18;8.20;99.90
53294;DHT22;39181;53.440;5.644;2023-04-09T01:31:45;8.20;99.90
53294;DHT22;39181;53.440;5.644;2023-04-09T01:34:13;8.20;99.90
53294;DHT22;39181;53.440;5.644;2023-04-09T01:36:40;8.20;99.90
53294;DHT22;39181;53.440;5.644;2023-04-09T01:39:07;8.10;99.90
53294;DHT22;39181;53.440;5.644;2023-04-09T01:41:34;8.10;99.90
53294;DHT22;39181;53.440;5.644;2023-04-09T01:44:01;8.10;99.90
53294;DHT22;39181;53.440;5.644;2023-04-09T01:46:28;8.10;99.90
53294;DHT22;39181;53.440;5.644;2023-04-09T01:48:54;8.10;99.90
53294;DHT22;39181;53.440;5.644;2023-04-09T01:51:20;8.20;99.90
53294;DHT22;39181;53.440;5.644;2023-04-09T01:53:48;8.10;99.90
53294;DHT22;39181;53.440;5.644;2023-04-09T01:56:14;8.10;99.90
53294;DHT22;39181;53.440;5.644;2023-04-09T01:58:39;8.10;99.90
53294;DHT22;39181;53.440;5.644;2023-04-09T02:01:25;8.10;99.90
53294;DHT22;39181;53.440;5.644;2023-04-09T02:03:53;8.10;99.90
53294;DHT22;39181;53.440;5.644;2023-04-09T02:06:43;8.10;99.90
53294;DHT22;39181;53.440;5.644;2023-04-09T02:09:13;8.10;99.90
53294;DHT22;39181;53.440;5.644;2023-04-09T02:11:42;8.10;99.90
53294;DHT22;39181;53.440;5.644;2023-04-09T02:14:08;8.10;99.90
53294;DHT22;39181;53.440;5.644;2023-04-09T02:16:35;8.00;99.90
53294;DHT22;39181;53.440;5.644;2023-04-09T02:19:02;8.10;99.90
53294;DHT22;39181;53.440;5.644;2023-04-09T02:21:28;8.00;99.90
53294;DHT22;39181;53.440;5.644;2023-04-09T02:23:56;8.00;99.90
53294;DHT22;39181;53.440;5.644;2023-04-09T02:26:22;8.00;99.90
53294;DHT22;39181;53.440;5.644;2023-04-09T02:28:49;8.00;99.90
53294;DHT22;39181;53.440;5.644;2023-04-09T02:31:15;8.00;99.90
53294;DHT22;39181;53.440;5.644;2023-04-09T02:33:40;8.00;99.90
53294;DHT22;39181;53.440;5.644;2023-04-09T02:36:10;8.00;99.90
53294;DHT22;39181;53.440;5.644;2023-04-09T02:38:36;8.00;99.90
53294;DHT22;39181;53.440;5.644;2023-04-09T02:41:02;8.00;99.90
53294;DHT22;39181;53.440;5.644;2023-04-09T02:43:27;8.00;99.90
53294;DHT22;39181;53.440;5.644;2023-04-09T02:45:53;8.00;99.90
53294;DHT22;39181;53.440;5.644;2023-04-09T02:48:18;8.00;99.90
53294;DHT22;39181;53.440;5.644;2023-04-09T02:50:44;7.90;99.90
53294;DHT22;39181;53.440;5.644;2023-04-09T02:53:10;7.90;99.90
53294;DHT22;39181;53.440;5.644;2023-04-09T02:55:35;7.80;99.90
53294;DHT22;39181;53.440;5.644;2023-04-09T02:58:01;7.80;99.90
53294;DHT22;39181;53.440;5.644;2023-04-09T03:00:27;7.80;99.90
53294;DHT22;39181;53.440;5.644;2023-04-09T03:02:52;7.80;99.90
53294;DHT22;39181;53.440;5.644;2023-04-09T03:05:18;7.80;99.90
53294;DHT22;39181;53.440;5.644;2023-04-09T03:07:43;7.80;99.90
53294;DHT22;39181;53.440;5.644;2023-04-09T03:10:09;7.80;99.90
53294;DHT22;39181;53.440;5.644;2023-04-09T03:12:35;7.80;99.90
53294;DHT22;39181;53.440;5.644;2023-04-09T03:15:00;7.70;99.90
53294;DHT22;39181;53.440;5.644;2023-04-09T03:17:26;7.70;99.90
53294;DHT22;39181;53.440;5.644;2023-04-09T03:19:52;7.70;99.90
53294;DHT22;39181;53.440;5.644;2023-04-09T03:22:18;7.70;99.90
53294;DHT22;39181;53.440;5.644;2023-04-09T03:24:43;7.70;99.90
53294;DHT22;39181;53.440;5.644;2023-04-09T03:27:09;7.70;99.90
53294;DHT22;39181;53.440;5.644;2023-04-09T03:29:35;7.70;99.90
53294;DHT22;39181;53.440;5.644;2023-04-09T03:32:00;7.70;99.90
53294;DHT22;39181;53.440;5.644;2023-04-09T03:34:26;7.70;99.90
53294;DHT22;39181;53.440;5.644;2023-04-09T03:36:51;7.60;99.90
53294;DHT22;39181;53.440;5.644;2023-04-09T03:39:17;7.70;99.90
53294;DHT22;39181;53.440;5.644;2023-04-09T03:41:43;7.60;99.90
53294;DHT22;39181;53.440;5.644;2023-04-09T03:44:08;7.60;99.90
53294;DHT22;39181;53.440;5.644;2023-04-09T03:46:34;7.60;99.90
53294;DHT22;39181;53.440;5.644;2023-04-09T03:48:59;7.60;99.90
53294;DHT22;39181;53.440;5.644;2023-04-09T03:51:25;7.60;99.90
53294;DHT22;39181;53.440;5.644;2023-04-09T03:53:51;7.60;99.90
53294;DHT22;39181;53.440;5.644;2023-04-09T03:56:17;7.50;99.90
53294;DHT22;39181;53.440;5.644;2023-04-09T03:58:43;7.50;99.90
53294;DHT22;39181;53.440;5.644;2023-04-09T04:01:09;7.60;99.90
53294;DHT22;39181;53.440;5.644;2023-04-09T04:03:34;7.60;99.90
53294;DHT22;39181;53.440;5.644;2023-04-09T04:06:01;7.50;99.90
53294;DHT22;39181;53.440;5.644;2023-04-09T04:08:27;7.60;99.90
53294;DHT22;39181;53.440;5.644;2023-04-09T04:10:53;7.50;99.90
53294;DHT22;39181;53.440;5.644;2023-04-09T04:13:18;7.50;99.90
53294;DHT22;39181;53.440;5.644;2023-04-09T04:15:44;7.50;99.90
53294;DHT22;39181;53.440;5.644;2023-04-09T04:18:10;7.50;99.90
53294;DHT22;39181;53.440;5.644;2023-04-09T04:20:36;7.40;99.90
53294;DHT22;39181;53.440;5.644;2023-04-09T04:23:02;7.50;99.90
53294;DHT22;39181;53.440;5.644;2023-04-09T04:25:28;7.50;99.90
53294;DHT22;39181;53.440;5.644;2023-04-09T04:27:54;7.50;99.90
53294;DHT22;39181;53.440;5.644;2023-04-09T04:30:20;7.40;99.90
53294;DHT22;39181;53.440;5.644;2023-04-09T04:32:46;7.40;99.90
53294;DHT22;39181;53.440;5.644;2023-04-09T04:35:12;7.40;99.90
53294;DHT22;39181;53.440;5.644;2023-04-09T04:37:38;7.30;99.90
53294;DHT22;39181;53.440;5.644;2023-04-09T04:40:05;7.40;99.90
53294;DHT22;39181;53.440;5.644;2023-04-09T04:42:31;7.30;99.90
53294;DHT22;39181;53.440;5.644;2023-04-09T04:44:57;7.30;99.90
53294;DHT22;39181;53.440;5.644;2023-04-09T04:47:23;7.20;99.90
53294;DHT22;39181;53.440;5.644;2023-04-09T04:49:48;7.30;99.90
53294;DHT22;39181;53.440;5.644;2023-04-09T04:52:14;7.20;99.90
53294;DHT22;39181;53.440;5.644;2023-04-09T04:54:39;7.20;99.90
53294;DHT22;39181;53.440;5.644;2023-04-09T04:57:05;7.20;99.90
53294;DHT22;39181;53.440;5.644;2023-04-09T04:59:30;7.20;99.90
53294;DHT22;39181;53.440;5.644;2023-04-09T05:01:56;7.20;99.90
53294;DHT22;39181;53.440;5.644;2023-04-09T05:04:21;7.30;99.90
53294;DHT22;39181;53.440;5.644;2023-04-09T05:06:47;7.30;99.90
53294;DHT22;39181;53.440;5.644;2023-04-09T05:09:13;7.30;99.90
53294;DHT22;39181;53.440;5.644;2023-04-09T05:11:38;7.30;99.90
53294;DHT22;39181;53.440;5.644;2023-04-09T05:14:04;7.30;99.90
53294;DHT22;39181;53.440;5.644;2023-04-09T05:16:30;7.20;99.90
53294;DHT22;39181;53.440;5.644;2023-04-09T05:18:56;7.20;99.90
53294;DHT22;39181;53.440;5.644;2023-04-09T05:21:22;7.30;99.90
53294;DHT22;39181;53.440;5.644;2023-04-09T05:23:47;7.30;99.90
53294;DHT22;39181;53.440;5.644;2023-04-09T05:26:13;7.20;99.90
53294;DHT22;39181;53.440;5.644;2023-04-09T05:28:38;7.30;99.90
53294;DHT22;39181;53.440;5.644;2023-04-09T05:31:04;7.20;99.90
53294;DHT22;39181;53.440;5.644;2023-04-09T05:33:31;7.30;99.90
53294;DHT22;39181;53.440;5.644;2023-04-09T05:36:02;7.30;99.90
53294;DHT22;39181;53.440;5.644;2023-04-09T05:38:27;7.20;99.90
53294;DHT22;39181;53.440;5.644;2023-04-09T05:40:53;7.30;99.90
53294;DHT22;39181;53.440;5.644;2023-04-09T05:43:18;7.30;99.90
53294;DHT22;39181;53.440;5.644;2023-04-09T05:45:44;7.20;99.90
53294;DHT22;39181;53.440;5.644;2023-04-09T05:48:09;7.30;99.90
53294;DHT22;39181;53.440;5.644;2023-04-09T05:50:35;7.30;99.90
53294;DHT22;39181;53.440;5.644;2023-04-09T05:53:01;7.30;99.90
53294;DHT22;39181;53.440;5.644;2023-04-09T05:55:26;7.30;99.90
53294;DHT22;39181;53.440;5.644;2023-04-09T05:57:52;7.30;99.90
53294;DHT22;39181;53.440;5.644;2023-04-09T06:00:17;7.30;99.90
53294;DHT22;39181;53.440;5.644;2023-04-09T06:02:43;7.30;99.90
53294;DHT22;39181;53.440;5.644;2023-04-09T06:05:09;7.30;99.90
53294;DHT22;39181;53.440;5.644;2023-04-09T06:07:35;7.30;99.90
53294;DHT22;39181;53.440;5.644;2023-04-09T06:10:01;7.30;99.90
53294;DHT22;39181;53.440;5.644;2023-04-09T06:12:27;7.30;99.90
53294;DHT22;39181;53.440;5.644;2023-04-09T06:14:52;7.40;99.90
53294;DHT22;39181;53.440;5.644;2023-04-09T06:17:18;7.40;99.90
53294;DHT22;39181;53.440;5.644;2023-04-09T06:19:44;7.40;99.90
53294;DHT22;39181;53.440;5.644;2023-04-09T06:22:09;7.40;99.90
53294;DHT22;39181;53.440;5.644;2023-04-09T06:24:38;7.50;99.90
53294;DHT22;39181;53.440;5.644;2023-04-09T06:27:03;7.50;99.90
53294;DHT22;39181;53.440;5.644;2023-04-09T06:29:29;7.50;99.90
53294;DHT22;39181;53.440;5.644;2023-04-09T06:31:54;7.50;99.90
53294;DHT22;39181;53.440;5.644;2023-04-09T06:34:20;7.50;99.90
53294;DHT22;39181;53.440;5.644;2023-04-09T06:36:45;7.50;99.90
53294;DHT22;39181;53.440;5.644;2023-04-09T06:39:11;7.60;99.90
53294;DHT22;39181;53.440;5.644;2023-04-09T06:41:37;7.60;99.90
53294;DHT22;39181;53.440;5.644;2023-04-09T06:44:02;7.70;99.90
53294;DHT22;39181;53.440;5.644;2023-04-09T06:46:28;7.70;99.90
53294;DHT22;39181;53.440;5.644;2023-04-09T06:48:54;7.70;99.90
53294;DHT22;39181;53.440;5.644;2023-04-09T06:51:19;7.70;99.90
53294;DHT22;39181;53.440;5.644;2023-04-09T06:53:45;7.70;99.90
53294;DHT22;39181;53.440;5.644;2023-04-09T06:56:12;7.70;99.90
53294;DHT22;39181;53.440;5.644;2023-04-09T06:58:37;7.70;99.90
53294;DHT22;39181;53.440;5.644;2023-04-09T07:01:03;7.80;99.90
53294;DHT22;39181;53.440;5.644;2023-04-09T07:03:29;7.80;99.90
53294;DHT22;39181;53.440;5.644;2023-04-09T07:05:55;7.90;99.90
53294;DHT22;39181;53.440;5.644;2023-04-09T07:08:22;7.80;99.90
53294;DHT22;39181;53.440;5.644;2023-04-09T07:10:48;7.90;99.90
53294;DHT22;39181;53.440;5.644;2023-04-09T07:13:13;7.90;99.90
53294;DHT22;39181;53.440;5.644;2023-04-09T07:15:39;7.90;99.90
53294;DHT22;39181;53.440;5.644;2023-04-09T07:18:05;8.00;99.90
53294;DHT22;39181;53.440;5.644;2023-04-09T07:20:30;8.10;99.90
53294;DHT22;39181;53.440;5.644;2023-04-09T07:22:56;8.00;99.90
53294;DHT22;39181;53.440;5.644;2023-04-09T07:25:22;8.00;99.90
53294;DHT22;39181;53.440;5.644;2023-04-09T07:27:48;8.10;99.90
53294;DHT22;39181;53.440;5.644;2023-04-09T07:30:14;8.10;99.90
53294;DHT22;39181;53.440;5.644;2023-04-09T07:32:39;8.10;99.90
53294;DHT22;39181;53.440;5.644;2023-04-09T07:35:06;8.20;99.90
53294;DHT22;39181;53.440;5.644;2023-04-09T07:37:32;8.20;99.90
53294;DHT22;39181;53.440;5.644;2023-04-09T07:39:58;8.20;99.90
53294;DHT22;39181;53.440;5.644;2023-04-09T07:42:23;8.30;99.90
53294;DHT22;39181;53.440;5.644;2023-04-09T07:44:49;8.40;99.90
53294;DHT22;39181;53.440;5.644;2023-04-09T07:47:15;8.40;99.90
53294;DHT22;39181;53.440;5.644;2023-04-09T07:49:41;8.50;99.90
53294;DHT22;39181;53.440;5.644;2023-04-09T07:52:06;8.50;99.90
53294;DHT22;39181;53.440;5.644;2023-04-09T07:54:32;8.50;99.90
53294;DHT22;39181;53.440;5.644;2023-04-09T07:56:58;8.50;99.90
53294;DHT22;39181;53.440;5.644;2023-04-09T07:59:26;8.50;99.90
53294;DHT22;39181;53.440;5.644;2023-04-09T08:01:52;8.50;99.90
53294;DHT22;39181;53.440;5.644;2023-04-09T08:04:18;8.60;99.90
53294;DHT22;39181;53.440;5.644;2023-04-09T08:06:44;8.70;99.90
53294;DHT22;39181;53.440;5.644;2023-04-09T08:09:17;8.70;99.90
53294;DHT22;39181;53.440;5.644;2023-04-09T08:11:44;8.80;99.90
53294;DHT22;39181;53.440;5.644;2023-04-09T08:14:11;8.80;99.90
53294;DHT22;39181;53.440;5.644;2023-04-09T08:16:44;8.80;99.90
53294;DHT22;39181;53.440;5.644;2023-04-09T08:19:11;8.80;99.90
53294;DHT22;39181;53.440;5.644;2023-04-09T08:21:38;8.80;99.90
53294;DHT22;39181;53.440;5.644;2023-04-09T08:24:05;8.80;99.90
53294;DHT22;39181;53.440;5.644;2023-04-09T08:26:31;8.90;99.90
53294;DHT22;39181;53.440;5.644;2023-04-09T08:28:57;8.90;99.90
53294;DHT22;39181;53.440;5.644;2023-04-09T08:31:23;8.80;99.90
53294;DHT22;39181;53.440;5.644;2023-04-09T08:33:49;8.90;99.90
53294;DHT22;39181;53.440;5.644;2023-04-09T08:36:14;8.80;99.90
53294;DHT22;39181;53.440;5.644;2023-04-09T08:38:40;8.80;99.90
53294;DHT22;39181;53.440;5.644;2023-04-09T08:41:06;8.80;99.90
53294;DHT22;39181;53.440;5.644;2023-04-09T08:43:32;8.80;99.90
53294;DHT22;39181;53.440;5.644;2023-04-09T08:46:01;8.90;99.90
53294;DHT22;39181;53.440;5.644;2023-04-09T08:48:28;8.80;99.90
53294;DHT22;39181;53.440;5.644;2023-04-09T08:50:54;8.90;99.90
53294;DHT22;39181;53.440;5.644;2023-04-09T08:53:20;8.90;99.90
53294;DHT22;39181;53.440;5.644;2023-04-09T08:55:47;8.90;99.90
53294;DHT22;39181;53.440;5.644;2023-04-09T08:58:13;9.00;99.90
53294;DHT22;39181;53.440;5.644;2023-04-09T09:00:39;9.00;99.90
53294;DHT22;39181;53.440;5.644;2023-04-09T09:03:11;9.10;99.90
53294;DHT22;39181;53.440;5.644;2023-04-09T09:05:44;9.10;99.90
53294;DHT22;39181;53.440;5.644;2023-04-09T09:08:22;9.10;99.90
53294;DHT22;39181;53.440;5.644;2023-04-09T09:10:48;9.20;99.90
53294;DHT22;39181;53.440;5.644;2023-04-09T09:13:17;9.30;99.90
53294;DHT22;39181;53.440;5.644;2023-04-09T09:15:44;9.20;99.90
53294;DHT22;39181;53.440;5.644;2023-04-09T09:18:12;9.20;99.90
53294;DHT22;39181;53.440;5.644;2023-04-09T09:20:37;9.20;99.90
53294;DHT22;39181;53.440;5.644;2023-04-09T09:23:03;9.30;99.90
53294;DHT22;39181;53.440;5.644;2023-04-09T09:25:29;9.40;99.90
53294;DHT22;39181;53.440;5.644;2023-04-09T09:28:14;9.40;99.90
53294;DHT22;39181;53.440;5.644;2023-04-09T09:30:40;9.40;99.90
53294;DHT22;39181;53.440;5.644;2023-04-09T09:33:10;9.50;99.90
53294;DHT22;39181;53.440;5.644;2023-04-09T09:35:51;9.50;99.90
53294;DHT22;39181;53.440;5.644;2023-04-09T09:38:18;9.50;99.90
53294;DHT22;39181;53.440;5.644;2023-04-09T09:40:46;9.40;99.90
53294;DHT22;39181;53.440;5.644;2023-04-09T09:43:12;9.40;99.90
53294;DHT22;39181;53.440;5.644;2023-04-09T09:45:39;9.40;99.90
53294;DHT22;39181;53.440;5.644;2023-04-09T09:48:06;9.40;99.90
53294;DHT22;39181;53.440;5.644;2023-04-09T09:50:33;9.40;99.90
53294;DHT22;39181;53.440;5.644;2023-04-09T09:53:06;9.30;99.90
53294;DHT22;39181;53.440;5.644;2023-04-09T09:55:32;9.30;99.90
53294;DHT22;39181;53.440;5.644;2023-04-09T09:58:01;9.40;99.90
53294;DHT22;39181;53.440;5.644;2023-04-09T10:00:31;9.40;99.90
53294;DHT22;39181;53.440;5.644;2023-04-09T10:03:02;9.50;99.90
53294;DHT22;39181;53.440;5.644;2023-04-09T10:05:30;9.60;99.90
53294;DHT22;39181;53.440;5.644;2023-04-09T10:07:57;9.50;99.90
53294;DHT22;39181;53.440;5.644;2023-04-09T10:10:24;9.50;99.90
53294;DHT22;39181;53.440;5.644;2023-04-09T10:12:51;9.60;99.90
53294;DHT22;39181;53.440;5.644;2023-04-09T10:15:18;9.60;99.90
53294;DHT22;39181;53.440;5.644;2023-04-09T10:17:44;9.60;99.90
53294;DHT22;39181;53.440;5.644;2023-04-09T10:20:14;9.50;99.90
53294;DHT22;39181;53.440;5.644;2023-04-09T10:22:45;9.40;99.90
53294;DHT22;39181;53.440;5.644;2023-04-09T10:25:12;9.50;99.90
53294;DHT22;39181;53.440;5.644;2023-04-09T10:27:38;9.50;99.90
53294;DHT22;39181;53.440;5.644;2023-04-09T10:30:04;9.40;99.90
53294;DHT22;39181;53.440;5.644;2023-04-09T10:32:34;9.40;99.90
53294;DHT22;39181;53.440;5.644;2023-04-09T10:35:02;9.50;99.90
53294;DHT22;39181;53.440;5.644;2023-04-09T10:37:28;9.70;99.90
53294;DHT22;39181;53.440;5.644;2023-04-09T10:39:54;9.60;99.90
53294;DHT22;39181;53.440;5.644;2023-04-09T10:42:34;9.70;99.90
53294;DHT22;39181;53.440;5.644;2023-04-09T10:47:35;9.80;99.90
53294;DHT22;39181;53.440;5.644;2023-04-09T10:50:33;9.80;99.90
53294;DHT22;39181;53.440;5.644;2023-04-09T10:53:02;9.80;99.90
53294;DHT22;39181;53.440;5.644;2023-04-09T10:55:40;9.90;99.90
53294;DHT22;39181;53.440;5.644;2023-04-09T10:58:08;10.00;99.90
53294;DHT22;39181;53.440;5.644;2023-04-09T11:00:47;10.10;99.90
53294;DHT22;39181;53.440;5.644;2023-04-09T11:03:26;10.00;99.90
53294;DHT22;39181;53.440;5.644;2023-04-09T11:06:01;9.90;99.90
53294;DHT22;39181;53.440;5.644;2023-04-09T11:08:30;9.90;99.90
53294;DHT22;39181;53.440;5.644;2023-04-09T11:10:57;10.00;99.90
53294;DHT22;39181;53.440;5.644;2023-04-09T11:13:24;10.00;99.90
53294;DHT22;39181;53.440;5.644;2023-04-09T11:15:50;10.10;99.90
53294;DHT22;39181;53.440;5.644;2023-04-09T11:18:23;10.20;99.90
53294;DHT22;39181;53.440;5.644;2023-04-09T11:20:49;10.30;99.90
53294;DHT22;39181;53.440;5.644;2023-04-09T11:23:16;10.40;99.90
53294;DHT22;39181;53.440;5.644;2023-04-09T11:25:41;10.40;99.90
53294;DHT22;39181;53.440;5.644;2023-04-09T11:28:07;10.50;99.90
53294;DHT22;39181;53.440;5.644;2023-04-09T11:30:34;10.70;99.90
53294;DHT22;39181;53.440;5.644;2023-04-09T11:33:00;10.90;99.90
53294;DHT22;39181;53.440;5.644;2023-04-09T11:35:26;11.10;99.90
53294;DHT22;39181;53.440;5.644;2023-04-09T11:37:52;11.10;99.90
53294;DHT22;39181;53.440;5.644;2023-04-09T11:40:25;11.10;99.90
53294;DHT22;39181;53.440;5.644;2023-04-09T11:42:54;11.10;99.90
53294;DHT22;39181;53.440;5.644;2023-04-09T11:45:25;11.00;99.90
53294;DHT22;39181;53.440;5.644;2023-04-09T11:47:52;11.10;99.90
53294;DHT22;39181;53.440;5.644;2023-04-09T11:50:18;11.30;99.90
53294;DHT22;39181;53.440;5.644;2023-04-09T11:52:45;11.30;99.90
53294;DHT22;39181;53.440;5.644;2023-04-09T11:55:11;11.20;99.90
53294;DHT22;39181;53.440;5.644;2023-04-09T11:57:46;11.60;99.90
53294;DHT22;39181;53.440;5.644;2023-04-09T12:00:16;11.70;99.90
53294;DHT22;39181;53.440;5.644;2023-04-09T12:02:44;11.90;99.90
53294;DHT22;39181;53.440;5.644;2023-04-09T12:05:12;12.30;99.90
53294;DHT22;39181;53.440;5.644;2023-04-09T12:07:44;12.30;99.90
53294;DHT22;39181;53.440;5.644;2023-04-09T12:10:10;12.60;99.90
53294;DHT22;39181;53.440;5.644;2023-04-09T12:12:46;12.70;99.90
53294;DHT22;39181;53.440;5.644;2023-04-09T12:17:46;13.00;99.90
53294;DHT22;39181;53.440;5.644;2023-04-09T12:20:12;13.10;99.90
53294;DHT22;39181;53.440;5.644;2023-04-09T12:22:37;13.10;99.90
53294;DHT22;39181;53.440;5.644;2023-04-09T12:25:06;13.40;99.90
53294;DHT22;39181;53.440;5.644;2023-04-09T12:27:31;13.60;99.90
53294;DHT22;39181;53.440;5.644;2023-04-09T12:29:57;13.50;99.90
53294;DHT22;39181;53.440;5.644;2023-04-09T12:32:23;13.60;99.90
53294;DHT22;39181;53.440;5.644;2023-04-09T12:34:48;13.20;99.90
53294;DHT22;39181;53.440;5.644;2023-04-09T12:37:14;13.20;99.90
53294;DHT22;39181;53.440;5.644;2023-04-09T12:39:40;13.30;99.90
53294;DHT22;39181;53.440;5.644;2023-04-09T12:42:06;13.30;99.90
53294;DHT22;39181;53.440;5.644;2023-04-09T12:44:31;13.10;99.90
53294;DHT22;39181;53.440;5.644;2023-04-09T12:46:57;13.10;99.90
53294;DHT22;39181;53.440;5.644;2023-04-09T12:49:23;12.80;99.90
53294;DHT22;39181;53.440;5.644;2023-04-09T12:51:49;13.10;99.90
53294;DHT22;39181;53.440;5.644;2023-04-09T12:54:16;13.30;99.90
53294;DHT22;39181;53.440;5.644;2023-04-09T12:56:41;13.40;99.90
53294;DHT22;39181;53.440;5.644;2023-04-09T12:59:07;13.40;99.90
53294;DHT22;39181;53.440;5.644;2023-04-09T13:01:32;13.50;99.90
53294;DHT22;39181;53.440;5.644;2023-04-09T13:03:58;13.40;99.90
53294;DHT22;39181;53.440;5.644;2023-04-09T13:06:23;13.50;99.90
53294;DHT22;39181;53.440;5.644;2023-04-09T13:08:49;13.70;99.90
53294;DHT22;39181;53.440;5.644;2023-04-09T13:11:15;13.90;99.90
53294;DHT22;39181;53.440;5.644;2023-04-09T13:13:40;13.90;99.90
53294;DHT22;39181;53.440;5.644;2023-04-09T13:16:07;13.90;99.90
53294;DHT22;39181;53.440;5.644;2023-04-09T13:18:33;13.60;99.90
53294;DHT22;39181;53.440;5.644;2023-04-09T13:20:58;14.10;99.90
53294;DHT22;39181;53.440;5.644;2023-04-09T13:23:24;13.90;99.90
53294;DHT22;39181;53.440;5.644;2023-04-09T13:25:50;13.70;99.90
53294;DHT22;39181;53.440;5.644;2023-04-09T13:28:15;14.10;99.90
53294;DHT22;39181;53.440;5.644;2023-04-09T13:30:41;14.30;99.90
53294;DHT22;39181;53.440;5.644;2023-04-09T13:33:06;14.70;99.90
53294;DHT22;39181;53.440;5.644;2023-04-09T13:35:32;14.20;99.90
53294;DHT22;39181;53.440;5.644;2023-04-09T13:37:58;14.10;99.90
53294;DHT22;39181;53.440;5.644;2023-04-09T13:40:23;14.10;99.90
53294;DHT22;39181;53.440;5.644;2023-04-09T13:42:49;14.20;99.90
53294;DHT22;39181;53.440;5.644;2023-04-09T13:45:14;13.80;99.90
53294;DHT22;39181;53.440;5.644;2023-04-09T13:47:40;13.80;99.90
53294;DHT22;39181;53.440;5.644;2023-04-09T13:50:07;13.90;99.90
53294;DHT22;39181;53.440;5.644;2023-04-09T13:52:34;14.00;99.90
53294;DHT22;39181;53.440;5.644;2023-04-09T13:55:00;13.80;99.90
53294;DHT22;39181;53.440;5.644;2023-04-09T13:57:25;13.90;99.90
53294;DHT22;39181;53.440;5.644;2023-04-09T13:59:51;13.90;99.90
53294;DHT22;39181;53.440;5.644;2023-04-09T14:02:17;13.90;99.90
53294;DHT22;39181;53.440;5.644;2023-04-09T14:04:43;13.80;99.90
53294;DHT22;39181;53.440;5.644;2023-04-09T14:07:09;13.60;99.90
53294;DHT22;39181;53.440;5.644;2023-04-09T14:09:34;13.50;99.90
53294;DHT22;39181;53.440;5.644;2023-04-09T14:12:00;13.50;99.90
53294;DHT22;39181;53.440;5.644;2023-04-09T14:14:26;13.50;99.90
53294;DHT22;39181;53.440;5.644;2023-04-09T14:16:52;13.30;99.90
53294;DHT22;39181;53.440;5.644;2023-04-09T14:19:17;13.30;99.90
53294;DHT22;39181;53.440;5.644;2023-04-09T14:21:43;13.00;99.90
53294;DHT22;39181;53.440;5.644;2023-04-09T14:24:08;12.90;99.90
53294;DHT22;39181;53.440;5.644;2023-04-09T14:26:34;12.70;99.90
53294;DHT22;39181;53.440;5.644;2023-04-09T14:29:00;12.50;99.90
53294;DHT22;39181;53.440;5.644;2023-04-09T14:31:25;12.60;99.90
53294;DHT22;39181;53.440;5.644;2023-04-09T14:33:51;12.30;99.90
53294;DHT22;39181;53.440;5.644;2023-04-09T14:36:17;12.20;99.90
53294;DHT22;39181;53.440;5.644;2023-04-09T14:38:42;12.00;99.90
53294;DHT22;39181;53.440;5.644;2023-04-09T14:41:08;12.20;99.90
53294;DHT22;39181;53.440;5.644;2023-04-09T14:43:34;12.10;99.90
53294;DHT22;39181;53.440;5.644;2023-04-09T14:45:59;12.00;99.90
53294;DHT22;39181;53.440;5.644;2023-04-09T14:48:25;12.00;99.90
53294;DHT22;39181;53.440;5.644;2023-04-09T14:50:50;12.10;99.90
53294;DHT22;39181;53.440;5.644;2023-04-09T14:53:16;12.10;99.90
53294;DHT22;39181;53.440;5.644;2023-04-09T14:55:42;11.90;99.90
53294;DHT22;39181;53.440;5.644;2023-04-09T14:58:08;11.90;99.90
53294;DHT22;39181;53.440;5.644;2023-04-09T15:00:34;11.70;99.90
53294;DHT22;39181;53.440;5.644;2023-04-09T15:03:00;11.70;99.90
53294;DHT22;39181;53.440;5.644;2023-04-09T15:05:26;11.60;99.90
53294;DHT22;39181;53.440;5.644;2023-04-09T15:07:52;11.70;99.90
53294;DHT22;39181;53.440;5.644;2023-04-09T15:10:18;11.80;99.90
53294;DHT22;39181;53.440;5.644;2023-04-09T15:12:44;12.20;99.90
53294;DHT22;39181;53.440;5.644;2023-04-09T15:15:09;11.80;99.90
53294;DHT22;39181;53.440;5.644;2023-04-09T15:17:35;11.70;99.90
53294;DHT22;39181;53.440;5.644;2023-04-09T15:20:01;11.60;99.90
53294;DHT22;39181;53.440;5.644;2023-04-09T15:22:26;11.50;99.90
53294;DHT22;39181;53.440;5.644;2023-04-09T15:24:52;11.50;99.90
53294;DHT22;39181;53.440;5.644;2023-04-09T15:27:18;11.60;99.90
53294;DHT22;39181;53.440;5.644;2023-04-09T15:29:43;11.70;99.90
53294;DHT22;39181;53.440;5.644;2023-04-09T15:32:09;11.70;99.90
53294;DHT22;39181;53.440;5.644;2023-04-09T15:34:35;11.60;99.90
53294;DHT22;39181;53.440;5.644;2023-04-09T15:37:01;11.60;99.90
53294;DHT22;39181;53.440;5.644;2023-04-09T15:39:27;11.50;99.90
53294;DHT22;39181;53.440;5.644;2023-04-09T15:41:53;11.50;99.90
53294;DHT22;39181;53.440;5.644;2023-04-09T15:44:20;11.50;99.90
53294;DHT22;39181;53.440;5.644;2023-04-09T15:46:46;11.50;99.90
53294;DHT22;39181;53.440;5.644;2023-04-09T15:49:12;11.30;99.90